sensor_id;sensor_type;location;lat;lon;timestamp;P1;durP1;ratioP1;P2;durP2;ratioP2
61627;SDS011;55193;52.102;5.242;2022-10-22T00:01:15;8.9;;;4.8;;
61627;SDS011;55193;52.102;5.242;2022-10-22T00:02:51;10.9;;;4.7;;
61627;SDS011;55193;52.102;5.242;2022-10-22T00:04:27;6.8;;;4.61;;
61627;SDS011;55193;52.102;5.242;2022-10-22T00:07:41;8.81;;;4.7;;
61627;SDS011;55193;52.102;5.242;2022-10-22T00:09:17;9.0;;;4.7;;
61627;SDS011;55193;52.102;5.242;2022-10-22T00:10:53;7.2;;;4.5;;
61627;SDS011;55193;52.102;5.242;2022-10-22T00:12:29;9.71;;;4.7;;
61627;SDS011;55193;52.102;5.242;2022-10-22T00:15:42;8.6;;;4.5;;
61627;SDS011;55193;52.102;5.242;2022-10-22T00:17:18;6.9;;;4.5;;
61627;SDS011;55193;52.102;5.242;2022-10-22T00:18:55;7.8;;;4.41;;
61627;SDS011;55193;52.102;5.242;2022-10-22T00:22:09;8.71;;;4.5;;
61627;SDS011;55193;52.102;5.242;2022-10-22T00:23:46;7.6;;;4.7;;
61627;SDS011;55193;52.102;5.242;2022-10-22T00:25:23;8.5;;;5.0;;
61627;SDS011;55193;52.102;5.242;2022-10-22T00:28:36;9.81;;;4.61;;
61627;SDS011;55193;52.102;5.242;2022-10-22T00:30:13;8.9;;;4.5;;
61627;SDS011;55193;52.102;5.242;2022-10-22T00:31:50;10.1;;;5.0;;
61627;SDS011;55193;52.102;5.242;2022-10-22T00:33:27;6.2;;;4.61;;
61627;SDS011;55193;52.102;5.242;2022-10-22T00:36:42;7.8;;;4.91;;
61627;SDS011;55193;52.102;5.242;2022-10-22T00:38:18;6.8;;;4.41;;
61627;SDS011;55193;52.102;5.242;2022-10-22T00:39:54;9.0;;;4.8;;
61627;SDS011;55193;52.102;5.242;2022-10-22T00:43:08;8.5;;;4.91;;
61627;SDS011;55193;52.102;5.242;2022-10-22T00:45:19;7.7;;;4.5;;
61627;SDS011;55193;52.102;5.242;2022-10-22T00:46:58;6.4;;;4.3;;
61627;SDS011;55193;52.102;5.242;2022-10-22T00:48:35;7.8;;;4.5;;
61627;SDS011;55193;52.102;5.242;2022-10-22T00:50:12;7.4;;;4.7;;
61627;SDS011;55193;52.102;5.242;2022-10-22T00:53:29;9.71;;;4.61;;
61627;SDS011;55193;52.102;5.242;2022-10-22T00:55:09;8.0;;;4.2;;
61627;SDS011;55193;52.102;5.242;2022-10-22T00:56:48;11.4;;;4.5;;
61627;SDS011;55193;52.102;5.242;2022-10-22T00:58:25;7.2;;;4.0;;
61627;SDS011;55193;52.102;5.242;2022-10-22T01:01:42;7.4;;;4.5;;
61627;SDS011;55193;52.102;5.242;2022-10-22T01:03:20;9.1;;;4.5;;
61627;SDS011;55193;52.102;5.242;2022-10-22T01:04:57;9.71;;;4.61;;
61627;SDS011;55193;52.102;5.242;2022-10-22T01:08:14;7.4;;;4.41;;
61627;SDS011;55193;52.102;5.242;2022-10-22T01:10:03;8.6;;;4.8;;
61627;SDS011;55193;52.102;5.242;2022-10-22T01:11:52;8.81;;;4.8;;
61627;SDS011;55193;52.102;5.242;2022-10-22T01:13:42;8.81;;;5.3;;
61627;SDS011;55193;52.102;5.242;2022-10-22T01:15:30;8.5;;;4.8;;
61627;SDS011;55193;52.102;5.242;2022-10-22T01:17:14;11.2;;;5.2;;
61627;SDS011;55193;52.102;5.242;2022-10-22T01:20:57;11.3;;;4.7;;
61627;SDS011;55193;52.102;5.242;2022-10-22T01:22:52;9.9;;;5.0;;
61627;SDS011;55193;52.102;5.242;2022-10-22T01:24:41;10.1;;;4.5;;
61627;SDS011;55193;52.102;5.242;2022-10-22T01:26:34;8.6;;;4.8;;
61627;SDS011;55193;52.102;5.242;2022-10-22T01:30:27;9.81;;;4.8;;
61627;SDS011;55193;52.102;5.242;2022-10-22T01:32:06;9.5;;;4.91;;
61627;SDS011;55193;52.102;5.242;2022-10-22T01:35:26;9.71;;;4.8;;
61627;SDS011;55193;52.102;5.242;2022-10-22T01:37:06;7.2;;;4.7;;
61627;SDS011;55193;52.102;5.242;2022-10-22T01:38:45;8.1;;;4.8;;
61627;SDS011;55193;52.102;5.242;2022-10-22T01:40:24;6.0;;;4.5;;
61627;SDS011;55193;52.102;5.242;2022-10-22T01:43:40;9.0;;;5.0;;
61627;SDS011;55193;52.102;5.242;2022-10-22T01:45:16;11.0;;;4.8;;
61627;SDS011;55193;52.102;5.242;2022-10-22T01:46:56;9.6;;;5.0;;
61627;SDS011;55193;52.102;5.242;2022-10-22T01:48:44;8.2;;;4.8;;
61627;SDS011;55193;52.102;5.242;2022-10-22T01:52:41;8.6;;;4.61;;
61627;SDS011;55193;52.102;5.242;2022-10-22T01:54:34;11.2;;;4.91;;
61627;SDS011;55193;52.102;5.242;2022-10-22T01:56:26;8.31;;;5.11;;
61627;SDS011;55193;52.102;5.242;2022-10-22T01:58:21;11.3;;;5.4;;
61627;SDS011;55193;52.102;5.242;2022-10-22T02:00:09;10.0;;;4.5;;
61627;SDS011;55193;52.102;5.242;2022-10-22T02:01:52;8.9;;;5.0;;
61627;SDS011;55193;52.102;5.242;2022-10-22T02:03:37;8.4;;;4.8;;
61627;SDS011;55193;52.102;5.242;2022-10-22T02:07:00;9.5;;;4.61;;
61627;SDS011;55193;52.102;5.242;2022-10-22T02:08:41;9.21;;;4.91;;
61627;SDS011;55193;52.102;5.242;2022-10-22T02:10:20;8.0;;;4.8;;
61627;SDS011;55193;52.102;5.242;2022-10-22T02:11:58;8.1;;;4.8;;
61627;SDS011;55193;52.102;5.242;2022-10-22T02:15:19;6.5;;;4.5;;
61627;SDS011;55193;52.102;5.242;2022-10-22T02:16:59;8.81;;;4.41;;
61627;SDS011;55193;52.102;5.242;2022-10-22T02:18:36;9.9;;;4.8;;
61627;SDS011;55193;52.102;5.242;2022-10-22T02:20:17;9.9;;;4.61;;
61627;SDS011;55193;52.102;5.242;2022-10-22T02:23:34;9.1;;;4.2;;
61627;SDS011;55193;52.102;5.242;2022-10-22T02:25:11;8.81;;;4.61;;
61627;SDS011;55193;52.102;5.242;2022-10-22T02:26:50;9.5;;;4.3;;
61627;SDS011;55193;52.102;5.242;2022-10-22T02:28:35;8.0;;;4.3;;
61627;SDS011;55193;52.102;5.242;2022-10-22T02:31:58;8.81;;;4.5;;
61627;SDS011;55193;52.102;5.242;2022-10-22T02:33:39;10.5;;;4.3;;
61627;SDS011;55193;52.102;5.242;2022-10-22T02:35:21;9.5;;;4.41;;
61627;SDS011;55193;52.102;5.242;2022-10-22T02:37:01;7.0;;;4.2;;
61627;SDS011;55193;52.102;5.242;2022-10-22T02:40:17;7.3;;;4.5;;
61627;SDS011;55193;52.102;5.242;2022-10-22T02:41:54;10.8;;;4.3;;
61627;SDS011;55193;52.102;5.242;2022-10-22T02:43:37;7.3;;;4.2;;
61627;SDS011;55193;52.102;5.242;2022-10-22T02:45:17;10.9;;;4.91;;
61627;SDS011;55193;52.102;5.242;2022-10-22T02:48:30;9.21;;;4.3;;
61627;SDS011;55193;52.102;5.242;2022-10-22T02:50:07;12.2;;;4.7;;
61627;SDS011;55193;52.102;5.242;2022-10-22T02:51:44;11.6;;;4.7;;
61627;SDS011;55193;52.102;5.242;2022-10-22T02:54:56;8.71;;;4.7;;
61627;SDS011;55193;52.102;5.242;2022-10-22T02:56:32;6.9;;;3.9;;
61627;SDS011;55193;52.102;5.242;2022-10-22T02:58:08;11.5;;;4.61;;
61627;SDS011;55193;52.102;5.242;2022-10-22T02:59:44;7.5;;;4.41;;
61627;SDS011;55193;52.102;5.242;2022-10-22T03:02:56;10.1;;;4.8;;
61627;SDS011;55193;52.102;5.242;2022-10-22T03:04:33;12.2;;;4.91;;
61627;SDS011;55193;52.102;5.242;2022-10-22T03:06:10;12.6;;;4.8;;
61627;SDS011;55193;52.102;5.242;2022-10-22T03:09:22;10.6;;;4.5;;
61627;SDS011;55193;52.102;5.242;2022-10-22T03:10:58;10.6;;;4.5;;
61627;SDS011;55193;52.102;5.242;2022-10-22T03:12:35;11.0;;;5.11;;
61627;SDS011;55193;52.102;5.242;2022-10-22T03:15:47;9.0;;;4.91;;
61627;SDS011;55193;52.102;5.242;2022-10-22T03:17:24;13.1;;;4.91;;
61627;SDS011;55193;52.102;5.242;2022-10-22T03:19:00;9.9;;;4.91;;
61627;SDS011;55193;52.102;5.242;2022-10-22T03:22:14;8.6;;;4.41;;
61627;SDS011;55193;52.102;5.242;2022-10-22T03:23:56;7.7;;;4.61;;
61627;SDS011;55193;52.102;5.242;2022-10-22T03:25:34;10.0;;;4.8;;
61627;SDS011;55193;52.102;5.242;2022-10-22T03:27:12;16.0;;;5.2;;
61627;SDS011;55193;52.102;5.242;2022-10-22T03:30:29;8.71;;;4.91;;
61627;SDS011;55193;52.102;5.242;2022-10-22T03:32:06;11.5;;;4.91;;
61627;SDS011;55193;52.102;5.242;2022-10-22T03:33:42;9.21;;;5.0;;
61627;SDS011;55193;52.102;5.242;2022-10-22T03:35:18;9.1;;;4.91;;
61627;SDS011;55193;52.102;5.242;2022-10-22T03:38:34;8.71;;;4.7;;
61627;SDS011;55193;52.102;5.242;2022-10-22T03:40:11;8.31;;;4.8;;
61627;SDS011;55193;52.102;5.242;2022-10-22T03:41:48;12.2;;;4.91;;
61627;SDS011;55193;52.102;5.242;2022-10-22T03:45:04;11.4;;;5.2;;
61627;SDS011;55193;52.102;5.242;2022-10-22T03:46:42;8.1;;;4.91;;
61627;SDS011;55193;52.102;5.242;2022-10-22T03:48:18;11.3;;;5.2;;
61627;SDS011;55193;52.102;5.242;2022-10-22T03:51:30;10.9;;;5.0;;
61627;SDS011;55193;52.102;5.242;2022-10-22T03:53:09;8.1;;;4.7;;
61627;SDS011;55193;52.102;5.242;2022-10-22T03:54:46;10.9;;;5.2;;
61627;SDS011;55193;52.102;5.242;2022-10-22T03:56:22;8.31;;;5.2;;
61627;SDS011;55193;52.102;5.242;2022-10-22T03:59:35;10.21;;;4.7;;
61627;SDS011;55193;52.102;5.242;2022-10-22T04:01:13;12.0;;;5.3;;
61627;SDS011;55193;52.102;5.242;2022-10-22T04:02:49;7.8;;;4.7;;
61627;SDS011;55193;52.102;5.242;2022-10-22T04:06:02;10.0;;;5.0;;
61627;SDS011;55193;52.102;5.242;2022-10-22T04:07:40;10.5;;;4.91;;
61627;SDS011;55193;52.102;5.242;2022-10-22T04:09:16;12.1;;;5.11;;
61627;SDS011;55193;52.102;5.242;2022-10-22T04:10:52;9.1;;;4.7;;
61627;SDS011;55193;52.102;5.242;2022-10-22T04:14:04;9.4;;;5.5;;
61627;SDS011;55193;52.102;5.242;2022-10-22T04:15:40;9.9;;;5.3;;
61627;SDS011;55193;52.102;5.242;2022-10-22T04:17:17;12.3;;;5.3;;
61627;SDS011;55193;52.102;5.242;2022-10-22T04:20:29;10.4;;;4.8;;
61627;SDS011;55193;52.102;5.242;2022-10-22T04:22:05;11.2;;;5.11;;
61627;SDS011;55193;52.102;5.242;2022-10-22T04:23:43;9.81;;;5.2;;
61627;SDS011;55193;52.102;5.242;2022-10-22T04:26:57;10.1;;;5.2;;
61627;SDS011;55193;52.102;5.242;2022-10-22T04:28:34;9.1;;;4.8;;
61627;SDS011;55193;52.102;5.242;2022-10-22T04:30:10;9.0;;;5.0;;
61627;SDS011;55193;52.102;5.242;2022-10-22T04:31:47;10.1;;;4.91;;
61627;SDS011;55193;52.102;5.242;2022-10-22T04:34:59;8.5;;;4.8;;
61627;SDS011;55193;52.102;5.242;2022-10-22T04:36:36;10.3;;;4.8;;
61627;SDS011;55193;52.102;5.242;2022-10-22T04:38:12;9.9;;;4.8;;
61627;SDS011;55193;52.102;5.242;2022-10-22T04:41:26;10.9;;;5.11;;
61627;SDS011;55193;52.102;5.242;2022-10-22T04:43:04;9.6;;;4.91;;
61627;SDS011;55193;52.102;5.242;2022-10-22T04:44:40;8.5;;;4.5;;
61627;SDS011;55193;52.102;5.242;2022-10-22T04:47:53;10.3;;;4.91;;
61627;SDS011;55193;52.102;5.242;2022-10-22T04:49:29;12.0;;;5.0;;
61627;SDS011;55193;52.102;5.242;2022-10-22T04:51:06;13.9;;;5.5;;
61627;SDS011;55193;52.102;5.242;2022-10-22T04:52:45;10.21;;;4.61;;
61627;SDS011;55193;52.102;5.242;2022-10-22T04:56:05;10.21;;;5.0;;
61627;SDS011;55193;52.102;5.242;2022-10-22T04:57:42;9.0;;;4.5;;
61627;SDS011;55193;52.102;5.242;2022-10-22T04:59:18;8.81;;;4.3;;
61627;SDS011;55193;52.102;5.242;2022-10-22T05:02:31;11.3;;;4.91;;
61627;SDS011;55193;52.102;5.242;2022-10-22T05:04:07;11.0;;;4.61;;
61627;SDS011;55193;52.102;5.242;2022-10-22T05:05:46;8.9;;;4.91;;
61627;SDS011;55193;52.102;5.242;2022-10-22T05:07:22;10.5;;;4.91;;
61627;SDS011;55193;52.102;5.242;2022-10-22T05:10:39;11.6;;;5.11;;
61627;SDS011;55193;52.102;5.242;2022-10-22T05:12:15;10.7;;;5.11;;
61627;SDS011;55193;52.102;5.242;2022-10-22T05:13:51;12.4;;;5.3;;
61627;SDS011;55193;52.102;5.242;2022-10-22T05:17:03;13.2;;;5.4;;
61627;SDS011;55193;52.102;5.242;2022-10-22T05:18:40;13.1;;;5.0;;
61627;SDS011;55193;52.102;5.242;2022-10-22T05:20:17;11.8;;;4.91;;
61627;SDS011;55193;52.102;5.242;2022-10-22T05:23:32;10.21;;;4.91;;
61627;SDS011;55193;52.102;5.242;2022-10-22T05:25:08;9.6;;;4.8;;
61627;SDS011;55193;52.102;5.242;2022-10-22T05:26:44;10.0;;;4.61;;
61627;SDS011;55193;52.102;5.242;2022-10-22T05:28:20;12.8;;;5.0;;
61627;SDS011;55193;52.102;5.242;2022-10-22T05:31:32;9.4;;;4.5;;
61627;SDS011;55193;52.102;5.242;2022-10-22T05:33:09;15.0;;;4.8;;
61627;SDS011;55193;52.102;5.242;2022-10-22T05:34:45;10.6;;;4.61;;
61627;SDS011;55193;52.102;5.242;2022-10-22T05:37:58;12.1;;;4.91;;
61627;SDS011;55193;52.102;5.242;2022-10-22T05:39:35;9.0;;;4.61;;
61627;SDS011;55193;52.102;5.242;2022-10-22T05:41:13;9.31;;;4.61;;
61627;SDS011;55193;52.102;5.242;2022-10-22T05:44:28;12.2;;;4.8;;
61627;SDS011;55193;52.102;5.242;2022-10-22T05:46:05;9.1;;;4.5;;
61627;SDS011;55193;52.102;5.242;2022-10-22T05:47:43;9.4;;;4.5;;
61627;SDS011;55193;52.102;5.242;2022-10-22T05:49:19;11.5;;;4.8;;
61627;SDS011;55193;52.102;5.242;2022-10-22T05:52:32;10.3;;;4.5;;
61627;SDS011;55193;52.102;5.242;2022-10-22T05:54:17;11.3;;;5.0;;
61627;SDS011;55193;52.102;5.242;2022-10-22T05:55:54;9.4;;;4.2;;
61627;SDS011;55193;52.102;5.242;2022-10-22T05:59:07;11.3;;;4.7;;
61627;SDS011;55193;52.102;5.242;2022-10-22T06:00:44;7.6;;;4.41;;
61627;SDS011;55193;52.102;5.242;2022-10-22T06:02:21;10.3;;;4.5;;
61627;SDS011;55193;52.102;5.242;2022-10-22T06:03:59;9.5;;;4.5;;
61627;SDS011;55193;52.102;5.242;2022-10-22T06:07:14;11.6;;;4.5;;
61627;SDS011;55193;52.102;5.242;2022-10-22T06:08:52;11.2;;;4.5;;
61627;SDS011;55193;52.102;5.242;2022-10-22T06:10:30;11.3;;;5.0;;
61627;SDS011;55193;52.102;5.242;2022-10-22T06:13:45;11.2;;;4.61;;
61627;SDS011;55193;52.102;5.242;2022-10-22T06:15:22;11.0;;;4.8;;
61627;SDS011;55193;52.102;5.242;2022-10-22T06:16:58;10.21;;;4.5;;
61627;SDS011;55193;52.102;5.242;2022-10-22T06:18:36;12.4;;;4.7;;
61627;SDS011;55193;52.102;5.242;2022-10-22T06:21:49;12.6;;;4.61;;
61627;SDS011;55193;52.102;5.242;2022-10-22T06:23:25;8.9;;;4.3;;
61627;SDS011;55193;52.102;5.242;2022-10-22T06:25:01;11.0;;;4.8;;
61627;SDS011;55193;52.102;5.242;2022-10-22T06:28:14;10.7;;;4.8;;
61627;SDS011;55193;52.102;5.242;2022-10-22T06:29:50;8.9;;;4.5;;
61627;SDS011;55193;52.102;5.242;2022-10-22T06:31:27;10.5;;;4.5;;
61627;SDS011;55193;52.102;5.242;2022-10-22T06:34:40;10.7;;;4.2;;
61627;SDS011;55193;52.102;5.242;2022-10-22T06:36:17;10.3;;;4.3;;
61627;SDS011;55193;52.102;5.242;2022-10-22T06:37:55;11.1;;;4.41;;
61627;SDS011;55193;52.102;5.242;2022-10-22T06:39:31;10.7;;;4.5;;
61627;SDS011;55193;52.102;5.242;2022-10-22T06:42:47;10.5;;;4.2;;
61627;SDS011;55193;52.102;5.242;2022-10-22T06:44:23;10.3;;;4.1;;
61627;SDS011;55193;52.102;5.242;2022-10-22T06:46:00;9.6;;;4.0;;
61627;SDS011;55193;52.102;5.242;2022-10-22T06:49:14;10.1;;;4.2;;
61627;SDS011;55193;52.102;5.242;2022-10-22T06:50:52;11.6;;;4.41;;
61627;SDS011;55193;52.102;5.242;2022-10-22T06:52:28;10.6;;;4.2;;
61627;SDS011;55193;52.102;5.242;2022-10-22T06:54:04;11.0;;;4.0;;
61627;SDS011;55193;52.102;5.242;2022-10-22T06:57:16;9.9;;;3.9;;
61627;SDS011;55193;52.102;5.242;2022-10-22T06:58:53;10.3;;;4.0;;
61627;SDS011;55193;52.102;5.242;2022-10-22T07:00:31;11.3;;;4.2;;
61627;SDS011;55193;52.102;5.242;2022-10-22T07:03:44;11.8;;;4.41;;
61627;SDS011;55193;52.102;5.242;2022-10-22T07:05:20;10.6;;;3.8;;
61627;SDS011;55193;52.102;5.242;2022-10-22T07:06:56;9.31;;;3.9;;
61627;SDS011;55193;52.102;5.242;2022-10-22T07:10:09;9.6;;;3.8;;
61627;SDS011;55193;52.102;5.242;2022-10-22T07:11:46;9.9;;;3.7;;
61627;SDS011;55193;52.102;5.242;2022-10-22T07:13:22;10.9;;;3.8;;
61627;SDS011;55193;52.102;5.242;2022-10-22T07:14:58;10.3;;;4.2;;
61627;SDS011;55193;52.102;5.242;2022-10-22T07:18:11;8.9;;;3.8;;
61627;SDS011;55193;52.102;5.242;2022-10-22T07:19:46;10.6;;;3.9;;
61627;SDS011;55193;52.102;5.242;2022-10-22T07:21:22;7.8;;;3.8;;
61627;SDS011;55193;52.102;5.242;2022-10-22T07:24:34;10.6;;;3.6;;
61627;SDS011;55193;52.102;5.242;2022-10-22T07:26:11;10.3;;;4.1;;
61627;SDS011;55193;52.102;5.242;2022-10-22T07:27:51;9.6;;;3.9;;
61627;SDS011;55193;52.102;5.242;2022-10-22T07:31:03;9.9;;;3.8;;
61627;SDS011;55193;52.102;5.242;2022-10-22T07:32:40;7.6;;;3.4;;
61627;SDS011;55193;52.102;5.242;2022-10-22T07:34:16;10.3;;;3.4;;
61627;SDS011;55193;52.102;5.242;2022-10-22T07:37:33;13.9;;;4.5;;
61627;SDS011;55193;52.102;5.242;2022-10-22T07:39:09;10.4;;;3.8;;
61627;SDS011;55193;52.102;5.242;2022-10-22T07:40:45;7.9;;;3.8;;
61627;SDS011;55193;52.102;5.242;2022-10-22T07:42:21;13.4;;;3.9;;
61627;SDS011;55193;52.102;5.242;2022-10-22T07:45:34;8.6;;;3.9;;
61627;SDS011;55193;52.102;5.242;2022-10-22T07:47:10;9.1;;;3.5;;
61627;SDS011;55193;52.102;5.242;2022-10-22T07:48:46;8.71;;;3.3;;
61627;SDS011;55193;52.102;5.242;2022-10-22T07:52:00;9.4;;;3.7;;
61627;SDS011;55193;52.102;5.242;2022-10-22T07:53:37;10.3;;;4.0;;
61627;SDS011;55193;52.102;5.242;2022-10-22T07:55:13;12.2;;;3.9;;
61627;SDS011;55193;52.102;5.242;2022-10-22T07:56:50;10.21;;;3.5;;
61627;SDS011;55193;52.102;5.242;2022-10-22T08:00:06;10.8;;;3.2;;
61627;SDS011;55193;52.102;5.242;2022-10-22T08:01:43;9.1;;;3.5;;
61627;SDS011;55193;52.102;5.242;2022-10-22T08:03:19;10.9;;;3.4;;
61627;SDS011;55193;52.102;5.242;2022-10-22T08:06:32;11.3;;;3.8;;
61627;SDS011;55193;52.102;5.242;2022-10-22T08:08:08;9.6;;;3.3;;
61627;SDS011;55193;52.102;5.242;2022-10-22T08:09:45;10.4;;;3.5;;
61627;SDS011;55193;52.102;5.242;2022-10-22T08:12:57;10.1;;;3.3;;
61627;SDS011;55193;52.102;5.242;2022-10-22T08:14:33;11.0;;;3.3;;
61627;SDS011;55193;52.102;5.242;2022-10-22T08:16:09;9.5;;;3.2;;
61627;SDS011;55193;52.102;5.242;2022-10-22T08:17:46;10.8;;;3.4;;
61627;SDS011;55193;52.102;5.242;2022-10-22T08:20:58;11.8;;;3.1;;
61627;SDS011;55193;52.102;5.242;2022-10-22T08:22:34;11.5;;;3.4;;
61627;SDS011;55193;52.102;5.242;2022-10-22T08:24:10;10.9;;;3.0;;
61627;SDS011;55193;52.102;5.242;2022-10-22T08:27:24;9.0;;;3.2;;
61627;SDS011;55193;52.102;5.242;2022-10-22T08:29:00;13.9;;;3.0;;
61627;SDS011;55193;52.102;5.242;2022-10-22T08:30:37;12.1;;;3.4;;
61627;SDS011;55193;52.102;5.242;2022-10-22T08:33:49;8.1;;;3.1;;
61627;SDS011;55193;52.102;5.242;2022-10-22T08:35:25;9.6;;;3.0;;
61627;SDS011;55193;52.102;5.242;2022-10-22T08:37:01;9.21;;;3.0;;
61627;SDS011;55193;52.102;5.242;2022-10-22T08:40:18;8.1;;;3.0;;
61627;SDS011;55193;52.102;5.242;2022-10-22T08:42:01;9.4;;;3.1;;
61627;SDS011;55193;52.102;5.242;2022-10-22T08:43:59;7.6;;;2.9;;
61627;SDS011;55193;52.102;5.242;2022-10-22T08:46:54;9.4;;;2.9;;
61627;SDS011;55193;52.102;5.242;2022-10-22T08:48:47;10.8;;;3.1;;
61627;SDS011;55193;52.102;5.242;2022-10-22T08:50:27;8.5;;;2.8;;
61627;SDS011;55193;52.102;5.242;2022-10-22T08:52:11;9.0;;;3.2;;
61627;SDS011;55193;52.102;5.242;2022-10-22T08:53:59;14.1;;;2.9;;
61627;SDS011;55193;52.102;5.242;2022-10-22T08:55:48;8.0;;;2.9;;
61627;SDS011;55193;52.102;5.242;2022-10-22T08:59:25;8.31;;;2.7;;
61627;SDS011;55193;52.102;5.242;2022-10-22T09:01:09;8.1;;;2.8;;
61627;SDS011;55193;52.102;5.242;2022-10-22T09:02:53;9.9;;;2.9;;
61627;SDS011;55193;52.102;5.242;2022-10-22T09:04:41;11.1;;;3.3;;
61627;SDS011;55193;52.102;5.242;2022-10-22T09:06:27;9.6;;;2.8;;
61627;SDS011;55193;52.102;5.242;2022-10-22T09:08:07;9.71;;;2.8;;
61627;SDS011;55193;52.102;5.242;2022-10-22T09:11:29;9.4;;;2.8;;
61627;SDS011;55193;52.102;5.242;2022-10-22T09:13:09;10.21;;;3.0;;
61627;SDS011;55193;52.102;5.242;2022-10-22T09:14:49;9.5;;;2.9;;
61627;SDS011;55193;52.102;5.242;2022-10-22T09:16:28;9.0;;;2.8;;
61627;SDS011;55193;52.102;5.242;2022-10-22T09:20:07;9.21;;;2.8;;
61627;SDS011;55193;52.102;5.242;2022-10-22T09:21:52;11.1;;;3.0;;
61627;SDS011;55193;52.102;5.242;2022-10-22T09:23:38;10.8;;;2.6;;
61627;SDS011;55193;52.102;5.242;2022-10-22T09:25:31;8.1;;;2.6;;
61627;SDS011;55193;52.102;5.242;2022-10-22T09:27:12;11.0;;;2.9;;
61627;SDS011;55193;52.102;5.242;2022-10-22T09:30:29;8.71;;;2.6;;
61627;SDS011;55193;52.102;5.242;2022-10-22T09:32:10;10.5;;;3.0;;
61627;SDS011;55193;52.102;5.242;2022-10-22T09:33:49;8.4;;;2.6;;
61627;SDS011;55193;52.102;5.242;2022-10-22T09:35:26;10.1;;;2.9;;
61627;SDS011;55193;52.102;5.242;2022-10-22T09:38:44;9.1;;;3.1;;
61627;SDS011;55193;52.102;5.242;2022-10-22T09:40:23;7.1;;;2.5;;
61627;SDS011;55193;52.102;5.242;2022-10-22T09:42:00;10.0;;;2.7;;
61627;SDS011;55193;52.102;5.242;2022-10-22T09:43:36;10.21;;;2.5;;
61627;SDS011;55193;52.102;5.242;2022-10-22T09:46:55;10.6;;;2.9;;
61627;SDS011;55193;52.102;5.242;2022-10-22T09:48:34;9.1;;;2.8;;
61627;SDS011;55193;52.102;5.242;2022-10-22T09:50:17;9.31;;;2.5;;
61627;SDS011;55193;52.102;5.242;2022-10-22T09:52:21;9.0;;;2.7;;
61627;SDS011;55193;52.102;5.242;2022-10-22T09:54:11;11.5;;;2.7;;
61627;SDS011;55193;52.102;5.242;2022-10-22T09:57:30;7.6;;;2.31;;
61627;SDS011;55193;52.102;5.242;2022-10-22T09:59:13;11.4;;;2.8;;
61627;SDS011;55193;52.102;5.242;2022-10-22T10:00:51;8.4;;;3.1;;
61627;SDS011;55193;52.102;5.242;2022-10-22T10:02:31;10.5;;;2.6;;
61627;SDS011;55193;52.102;5.242;2022-10-22T10:05:48;7.8;;;2.4;;
61627;SDS011;55193;52.102;5.242;2022-10-22T10:07:29;10.3;;;2.6;;
61627;SDS011;55193;52.102;5.242;2022-10-22T10:09:09;9.4;;;2.6;;
61627;SDS011;55193;52.102;5.242;2022-10-22T10:10:51;14.3;;;2.8;;
61627;SDS011;55193;52.102;5.242;2022-10-22T10:14:24;9.21;;;2.4;;
61627;SDS011;55193;52.102;5.242;2022-10-22T10:16:12;9.9;;;2.4;;
61627;SDS011;55193;52.102;5.242;2022-10-22T10:18:03;8.71;;;2.7;;
61627;SDS011;55193;52.102;5.242;2022-10-22T10:19:55;11.1;;;3.6;;
61627;SDS011;55193;52.102;5.242;2022-10-22T10:21:47;7.8;;;2.6;;
61627;SDS011;55193;52.102;5.242;2022-10-22T10:23:35;11.9;;;3.2;;
61627;SDS011;55193;52.102;5.242;2022-10-22T10:25:30;7.5;;;2.31;;
61627;SDS011;55193;52.102;5.242;2022-10-22T10:27:40;7.3;;;2.4;;
61627;SDS011;55193;52.102;5.242;2022-10-22T10:31:19;8.1;;;2.4;;
61627;SDS011;55193;52.102;5.242;2022-10-22T10:33:10;10.21;;;2.4;;
61627;SDS011;55193;52.102;5.242;2022-10-22T10:35:01;9.6;;;2.21;;
61627;SDS011;55193;52.102;5.242;2022-10-22T10:36:51;7.4;;;2.31;;
61627;SDS011;55193;52.102;5.242;2022-10-22T10:38:38;9.5;;;2.7;;
61627;SDS011;55193;52.102;5.242;2022-10-22T10:40:26;6.8;;;2.21;;
61627;SDS011;55193;52.102;5.242;2022-10-22T10:42:20;9.81;;;2.4;;
61627;SDS011;55193;52.102;5.242;2022-10-22T10:46:10;7.9;;;2.21;;
61627;SDS011;55193;52.102;5.242;2022-10-22T10:48:30;12.3;;;2.7;;
61627;SDS011;55193;52.102;5.242;2022-10-22T10:50:36;11.6;;;2.4;;
61627;SDS011;55193;52.102;5.242;2022-10-22T10:54:14;7.2;;;2.1;;
61627;SDS011;55193;52.102;5.242;2022-10-22T10:56:06;8.81;;;2.1;;
61627;SDS011;55193;52.102;5.242;2022-10-22T10:58:02;8.9;;;2.6;;
61627;SDS011;55193;52.102;5.242;2022-10-22T10:59:53;11.1;;;2.5;;
61627;SDS011;55193;52.102;5.242;2022-10-22T11:01:41;6.3;;;1.9;;
61627;SDS011;55193;52.102;5.242;2022-10-22T11:03:34;7.3;;;2.1;;
61627;SDS011;55193;52.102;5.242;2022-10-22T11:05:27;7.7;;;2.1;;
61627;SDS011;55193;52.102;5.242;2022-10-22T11:08:55;6.5;;;2.1;;
61627;SDS011;55193;52.102;5.242;2022-10-22T11:10:35;8.4;;;2.0;;
61627;SDS011;55193;52.102;5.242;2022-10-22T11:12:17;8.71;;;2.31;;
61627;SDS011;55193;52.102;5.242;2022-10-22T11:14:02;10.21;;;2.31;;
61627;SDS011;55193;52.102;5.242;2022-10-22T11:15:46;8.0;;;2.4;;
61627;SDS011;55193;52.102;5.242;2022-10-22T11:19:15;9.5;;;2.21;;
61627;SDS011;55193;52.102;5.242;2022-10-22T11:21:02;11.2;;;2.1;;
61627;SDS011;55193;52.102;5.242;2022-10-22T11:22:47;10.1;;;2.4;;
61627;SDS011;55193;52.102;5.242;2022-10-22T11:24:29;8.4;;;1.8;;
61627;SDS011;55193;52.102;5.242;2022-10-22T11:26:16;11.9;;;2.31;;
61627;SDS011;55193;52.102;5.242;2022-10-22T11:28:10;10.6;;;2.21;;
61627;SDS011;55193;52.102;5.242;2022-10-22T11:31:35;11.3;;;2.21;;
61627;SDS011;55193;52.102;5.242;2022-10-22T11:33:14;9.9;;;2.1;;
61627;SDS011;55193;52.102;5.242;2022-10-22T11:34:57;8.31;;;2.1;;
61627;SDS011;55193;52.102;5.242;2022-10-22T11:36:36;10.3;;;2.4;;
61627;SDS011;55193;52.102;5.242;2022-10-22T11:39:56;15.3;;;2.5;;
61627;SDS011;55193;52.102;5.242;2022-10-22T11:41:36;9.1;;;2.0;;
61627;SDS011;55193;52.102;5.242;2022-10-22T11:43:24;12.5;;;2.4;;
61627;SDS011;55193;52.102;5.242;2022-10-22T11:45:04;10.9;;;2.0;;
61627;SDS011;55193;52.102;5.242;2022-10-22T11:47:07;11.2;;;2.4;;
61627;SDS011;55193;52.102;5.242;2022-10-22T11:50:44;9.0;;;2.0;;
61627;SDS011;55193;52.102;5.242;2022-10-22T11:52:26;10.3;;;2.4;;
61627;SDS011;55193;52.102;5.242;2022-10-22T11:54:37;11.5;;;2.4;;
61627;SDS011;55193;52.102;5.242;2022-10-22T11:56:21;7.5;;;2.1;;
61627;SDS011;55193;52.102;5.242;2022-10-22T11:58:01;9.4;;;2.1;;
61627;SDS011;55193;52.102;5.242;2022-10-22T12:00:05;9.71;;;2.1;;
61627;SDS011;55193;52.102;5.242;2022-10-22T12:01:45;11.4;;;2.31;;
61627;SDS011;55193;52.102;5.242;2022-10-22T12:05:34;13.4;;;3.0;;
61627;SDS011;55193;52.102;5.242;2022-10-22T12:07:29;7.5;;;2.0;;
61627;SDS011;55193;52.102;5.242;2022-10-22T12:09:29;11.8;;;3.3;;
61627;SDS011;55193;52.102;5.242;2022-10-22T12:11:13;11.0;;;2.7;;
61627;SDS011;55193;52.102;5.242;2022-10-22T12:12:54;10.5;;;2.0;;
61627;SDS011;55193;52.102;5.242;2022-10-22T12:14:32;13.4;;;3.0;;
61627;SDS011;55193;52.102;5.242;2022-10-22T12:16:26;14.8;;;4.2;;
61627;SDS011;55193;52.102;5.242;2022-10-22T12:19:49;11.5;;;2.4;;
61627;SDS011;55193;52.102;5.242;2022-10-22T12:21:30;13.4;;;2.7;;
61627;SDS011;55193;52.102;5.242;2022-10-22T12:23:08;12.5;;;2.8;;
61627;SDS011;55193;52.102;5.242;2022-10-22T12:24:48;12.0;;;2.6;;
61627;SDS011;55193;52.102;5.242;2022-10-22T12:28:09;12.3;;;2.5;;
61627;SDS011;55193;52.102;5.242;2022-10-22T12:29:48;13.6;;;2.6;;
61627;SDS011;55193;52.102;5.242;2022-10-22T12:31:33;8.2;;;2.1;;
61627;SDS011;55193;52.102;5.242;2022-10-22T12:33:17;9.71;;;1.9;;
61627;SDS011;55193;52.102;5.242;2022-10-22T12:36:33;11.2;;;2.21;;
61627;SDS011;55193;52.102;5.242;2022-10-22T12:38:12;9.71;;;2.21;;
61627;SDS011;55193;52.102;5.242;2022-10-22T12:39:50;10.21;;;2.31;;
61627;SDS011;55193;52.102;5.242;2022-10-22T12:41:30;11.0;;;2.31;;
61627;SDS011;55193;52.102;5.242;2022-10-22T12:44:53;10.8;;;2.5;;
61627;SDS011;55193;52.102;5.242;2022-10-22T12:46:30;10.8;;;2.4;;
61627;SDS011;55193;52.102;5.242;2022-10-22T12:48:13;11.5;;;2.4;;
61627;SDS011;55193;52.102;5.242;2022-10-22T12:49:52;9.81;;;2.4;;
61627;SDS011;55193;52.102;5.242;2022-10-22T12:53:06;13.5;;;2.5;;